Time;durP1;ratioP1;P1;durP2;ratioP2;P2;SDS_P1;SDS_P2;PMS_P1;PMS_P2;Temp;Humidity;BMP_temperature;BMP_pressure;BME280_temperature;BME280_humidity;BME280_pressure;Samples;Min_cycle;Max_cycle;Signal;HPM_P1;HPM_P2
2022/04/13 00:00:14;;;;;;;6.77;6.17;;;12.70;82.50;;;;;;5009218;28;20241;-70
2022/04/13 00:02:42;;;;;;;6.87;6.27;;;12.60;82.50;;;;;;5000219;28;20213;-70
2022/04/13 00:05:10;;;;;;;7.20;5.60;;;12.60;82.30;;;;;;5009412;28;20206;-70
2022/04/13 00:07:37;;;;;;;7.03;6.33;;;12.60;82.20;;;;;;5009304;28;20209;-70
2022/04/13 00:10:05;;;;;;;12.23;6.50;;;12.60;82.40;;;;;;5008892;28;20202;-70
2022/04/13 00:12:31;;;;;;;6.73;6.13;;;12.60;82.50;;;;;;5008827;28;20614;-70
2022/04/13 00:14:59;;;;;;;6.53;5.93;;;12.50;82.40;;;;;;5008765;28;20213;-70
2022/04/13 00:17:26;;;;;;;6.80;6.10;;;12.50;82.60;;;;;;5008707;28;20218;-70
2022/04/13 00:19:53;;;;;;;6.77;6.10;;;12.50;82.50;;;;;;5008353;28;20789;-70
2022/04/13 00:22:19;;;;;;;7.57;6.00;;;12.50;82.70;;;;;;5009015;28;20209;-71
2022/04/13 00:24:46;;;;;;;6.67;6.03;;;12.50;82.70;;;;;;5004149;28;20197;-71
2022/04/13 00:27:12;;;;;;;7.27;6.13;;;12.50;82.90;;;;;;5008831;28;20289;-71
2022/04/13 00:29:39;;;;;;;9.87;6.13;;;12.40;82.80;;;;;;5007618;28;20264;-71
2022/04/13 00:32:08;;;;;;;6.57;5.87;;;12.40;83.00;;;;;;5008687;28;20275;-70
2022/04/13 00:34:35;;;;;;;6.20;5.60;;;12.40;83.30;;;;;;4989855;28;20219;-70
2022/04/13 00:37:02;;;;;;;7.20;5.97;;;12.40;83.00;;;;;;4989427;28;20303;-70
2022/04/13 00:39:29;;;;;;;6.23;5.63;;;12.40;83.30;;;;;;4989088;28;20214;-70
2022/04/13 00:41:57;;;;;;;6.83;6.13;;;12.30;83.40;;;;;;4988921;28;20269;-68
2022/04/13 00:44:25;;;;;;;6.63;5.97;;;12.30;83.50;;;;;;4990353;28;20776;-69
2022/04/13 00:46:52;;;;;;;6.73;6.03;;;12.20;83.40;;;;;;5008300;28;20730;-70
2022/04/13 00:49:20;;;;;;;6.87;6.17;;;12.20;83.70;;;;;;5008505;28;20670;-69
2022/04/13 00:51:47;;;;;;;6.60;5.90;;;12.20;84.00;;;;;;5008362;28;20245;-70
2022/04/13 00:54:17;;;;;;;7.23;5.80;;;12.20;84.30;;;;;;5007840;28;20209;-70
2022/04/13 00:56:46;;;;;;;8.03;6.70;;;12.20;84.10;;;;;;5008643;28;20260;-70
2022/04/13 00:59:15;;;;;;;7.20;5.60;;;12.10;84.70;;;;;;5007884;28;20205;-70
2022/04/13 01:01:43;;;;;;;7.07;6.33;;;12.10;84.30;;;;;;5008269;28;20233;-71
2022/04/13 01:04:12;;;;;;;7.57;6.30;;;12.10;84.40;;;;;;5008276;28;20201;-68
2022/04/13 01:06:42;;;;;;;6.60;6.00;;;12.10;84.40;;;;;;4996560;28;20723;-68
2022/04/13 01:09:09;;;;;;;6.67;5.93;;;12.10;84.70;;;;;;4998730;28;20492;-68
2022/04/13 01:11:35;;;;;;;7.80;6.03;;;12.00;85.50;;;;;;4988791;28;20216;-68
2022/04/13 01:14:02;;;;;;;7.33;6.63;;;12.00;85.30;;;;;;4992759;28;20263;-68
2022/04/13 01:16:29;;;;;;;9.43;6.20;;;11.90;85.30;;;;;;5008008;28;20206;-68
2022/04/13 01:18:57;;;;;;;6.73;6.13;;;11.90;85.40;;;;;;5008590;28;20283;-68
2022/04/13 01:21:42;;;;;;;9.03;6.83;;;11.90;86.00;;;;;;5007601;28;20698;-68
2022/04/13 01:24:10;;;;;;;9.63;6.43;;;11.80;86.10;;;;;;5007615;28;20682;-68
2022/04/13 01:26:37;;;;;;;6.90;6.23;;;11.80;86.30;;;;;;5008029;28;20201;-68
2022/04/13 01:29:04;;;;;;;7.63;6.40;;;11.60;87.50;;;;;;5007564;28;20206;-68
2022/04/13 01:31:32;;;;;;;7.07;6.33;;;11.50;87.00;;;;;;5008682;28;20210;-73
2022/04/13 01:33:59;;;;;;;7.73;6.33;;;11.50;87.00;;;;;;5007920;28;20793;-73
2022/04/13 01:36:26;;;;;;;7.60;6.47;;;11.60;86.80;;;;;;5008389;28;20235;-73
2022/04/13 01:38:53;;;;;;;7.40;6.60;;;11.60;86.60;;;;;;5008021;28;20214;-73
2022/04/13 01:41:20;;;;;;;7.27;6.17;;;11.60;86.70;;;;;;5008134;28;20233;-70
2022/04/13 01:43:47;;;;;;;7.43;6.50;;;11.60;86.70;;;;;;5007765;28;20699;-70
2022/04/13 01:46:14;;;;;;;9.33;6.57;;;11.60;87.00;;;;;;5007318;28;20209;-70
2022/04/13 01:48:40;;;;;;;6.97;6.37;;;11.70;87.20;;;;;;5011855;28;20233;-70
2022/04/13 01:51:07;;;;;;;9.10;6.47;;;11.70;87.30;;;;;;5011096;28;20295;-70
2022/04/13 01:53:35;;;;;;;8.30;6.13;;;11.60;87.20;;;;;;5007662;28;20427;-70
2022/04/13 01:56:01;;;;;;;7.63;6.63;;;11.70;87.10;;;;;;5010600;28;20730;-70
2022/04/13 01:58:30;;;;;;;7.70;7.00;;;11.60;87.30;;;;;;4998998;28;20202;-70
2022/04/13 02:00:57;;;;;;;7.60;6.43;;;11.60;87.40;;;;;;5010392;28;20770;-70
2022/04/13 02:03:24;;;;;;;7.70;6.40;;;11.60;87.80;;;;;;5011468;28;20210;-70
2022/04/13 02:05:52;;;;;;;7.47;6.60;;;11.60;87.50;;;;;;5010770;28;20208;-72
2022/04/13 02:08:19;;;;;;;7.17;6.10;;;11.60;87.90;;;;;;5011530;28;20210;-68
2022/04/13 02:10:45;;;;;;;6.87;6.23;;;11.60;88.00;;;;;;5011028;28;20737;-72
2022/04/13 02:13:12;;;;;;;7.27;6.57;;;11.60;88.50;;;;;;5011348;28;20205;-72
2022/04/13 02:15:40;;;;;;;8.70;6.73;;;11.50;88.90;;;;;;5001596;28;20261;-72
2022/04/13 02:18:07;;;;;;;6.87;6.20;;;11.50;88.70;;;;;;4991883;28;20214;-72
2022/04/13 02:20:34;;;;;;;8.00;6.47;;;11.40;89.00;;;;;;5010329;28;20240;-72
2022/04/13 02:23:02;;;;;;;7.53;6.83;;;11.40;89.10;;;;;;5011069;28;20205;-72
2022/04/13 02:25:29;;;;;;;7.20;6.47;;;11.30;89.00;;;;;;4999331;28;20212;-73
2022/04/13 02:27:56;;;;;;;7.67;6.50;;;11.40;89.20;;;;;;5007626;28;20206;-71
2022/04/13 02:30:23;;;;;;;7.80;6.40;;;11.40;89.20;;;;;;5010906;28;20237;-72
2022/04/13 02:32:51;;;;;;;10.07;6.50;;;11.40;89.30;;;;;;5011092;28;20259;-71
2022/04/13 02:35:17;;;;;;;7.50;6.57;;;11.40;89.30;;;;;;5000682;28;20268;-71
2022/04/13 02:37:44;;;;;;;10.93;6.83;;;11.40;89.40;;;;;;4991658;28;20214;-70
2022/04/13 02:40:12;;;;;;;9.67;6.60;;;11.10;89.40;;;;;;5010108;28;20216;-71
2022/04/13 02:42:39;;;;;;;7.57;6.77;;;11.20;90.00;;;;;;5011089;28;20240;-71
2022/04/13 02:45:06;;;;;;;8.13;5.93;;;11.20;90.00;;;;;;5002129;28;20731;-71
2022/04/13 02:47:33;;;;;;;7.50;6.60;;;11.20;90.10;;;;;;4998231;28;20275;-71
2022/04/13 02:50:01;;;;;;;6.60;5.90;;;11.20;90.10;;;;;;5010499;28;20236;-71
2022/04/13 02:52:29;;;;;;;8.83;6.70;;;11.20;90.20;;;;;;5010266;28;20553;-71
2022/04/13 02:54:55;;;;;;;9.47;6.60;;;11.20;90.20;;;;;;5003620;28;20289;-70
2022/04/13 02:57:22;;;;;;;6.80;6.17;;;11.20;90.30;;;;;;5004059;28;20202;-71
2022/04/13 02:59:49;;;;;;;7.90;6.50;;;11.20;90.40;;;;;;5009701;28;20205;-68
2022/04/13 03:02:16;;;;;;;6.80;5.93;;;11.10;90.40;;;;;;5010447;28;20631;-68
2022/04/13 03:04:44;;;;;;;8.33;6.60;;;11.00;90.40;;;;;;5009897;28;20260;-68
2022/04/13 03:07:12;;;;;;;7.77;6.70;;;11.00;90.70;;;;;;5009872;28;20241;-68
2022/04/13 03:09:39;;;;;;;7.60;6.17;;;11.10;90.50;;;;;;5010095;28;20205;-68
2022/04/13 03:12:07;;;;;;;7.30;6.60;;;11.10;90.50;;;;;;5009752;28;20324;-69
2022/04/13 03:14:34;;;;;;;7.60;6.33;;;11.00;90.60;;;;;;5007624;28;20207;-70
2022/04/13 03:17:00;;;;;;;7.03;6.33;;;11.00;90.60;;;;;;5010058;28;20264;-70
2022/04/13 03:19:27;;;;;;;7.47;6.60;;;11.00;90.60;;;;;;5009510;28;20205;-70
2022/04/13 03:21:54;;;;;;;9.63;6.60;;;11.00;90.90;;;;;;5008528;28;20326;-70
2022/04/13 03:24:23;;;;;;;7.63;6.07;;;11.00;90.80;;;;;;5009599;28;20267;-69
2022/04/13 03:26:49;;;;;;;9.67;6.23;;;10.90;90.80;;;;;;5010029;28;20209;-69
2022/04/13 03:29:16;;;;;;;7.97;6.83;;;10.80;91.00;;;;;;5009520;28;20233;-69
2022/04/13 03:31:43;;;;;;;7.73;5.80;;;10.70;91.10;;;;;;5009728;28;20206;-68
2022/04/13 03:34:10;;;;;;;8.43;6.57;;;10.60;91.30;;;;;;5009517;28;20610;-68
2022/04/13 03:36:39;;;;;;;7.43;6.73;;;10.40;91.50;;;;;;5009463;28;20209;-69
2022/04/13 03:39:06;;;;;;;8.77;6.77;;;10.40;91.60;;;;;;5009854;28;20344;-69
2022/04/13 03:41:34;;;;;;;7.30;6.60;;;10.50;91.60;;;;;;4994240;28;20703;-70
2022/04/13 03:44:01;;;;;;;9.23;6.50;;;10.60;91.70;;;;;;4998547;28;20210;-69
2022/04/13 03:46:27;;;;;;;9.97;6.87;;;10.60;91.60;;;;;;5009440;28;20668;-68
2022/04/13 03:48:54;;;;;;;6.80;6.20;;;10.70;91.50;;;;;;5009486;28;20221;-68
2022/04/13 03:51:21;;;;;;;7.73;6.30;;;10.70;91.50;;;;;;4995660;28;20604;-68
2022/04/13 03:53:47;;;;;;;7.73;6.17;;;10.50;91.60;;;;;;5005314;28;20275;-70
2022/04/13 03:56:14;;;;;;;6.93;6.23;;;10.50;91.80;;;;;;5009668;28;20202;-70
2022/04/13 03:58:42;;;;;;;7.33;6.60;;;10.60;91.70;;;;;;5006031;28;20252;-70
2022/04/13 04:01:09;;;;;;;6.97;6.20;;;10.60;91.70;;;;;;5009062;28;20256;-70
2022/04/13 04:03:36;;;;;;;9.50;6.13;;;10.60;91.80;;;;;;5009389;28;20217;-70
2022/04/13 04:06:06;;;;;;;6.57;5.87;;;10.60;91.80;;;;;;5008599;28;20665;-70
2022/04/13 04:08:33;;;;;;;6.57;5.93;;;10.60;91.70;;;;;;5009243;28;20194;-70
2022/04/13 04:11:00;;;;;;;6.93;6.10;;;10.70;91.80;;;;;;5008677;28;20687;-73
2022/04/13 04:13:27;;;;;;;9.43;6.43;;;10.40;91.80;;;;;;5009329;28;20209;-73
2022/04/13 04:15:59;;;;;;;7.33;6.13;;;10.50;92.00;;;;;;5004961;28;20253;-72
2022/04/13 04:18:25;;;;;;;8.77;6.93;;;10.40;91.90;;;;;;5006736;28;20575;-72
2022/04/13 04:20:52;;;;;;;7.60;6.90;;;10.50;92.10;;;;;;4999145;28;20206;-70
2022/04/13 04:23:19;;;;;;;7.03;6.27;;;10.50;92.10;;;;;;4996276;28;20368;-70
2022/04/13 04:25:46;;;;;;;7.80;6.43;;;10.30;92.20;;;;;;4998792;28;20199;-69
2022/04/13 04:28:12;;;;;;;9.17;6.73;;;10.30;92.50;;;;;;4992586;28;20197;-70
2022/04/13 04:30:39;;;;;;;8.63;6.60;;;10.30;92.60;;;;;;5008739;28;20213;-70
2022/04/13 04:33:08;;;;;;;8.40;6.60;;;10.30;92.30;;;;;;5008463;28;20217;-69
2022/04/13 04:35:35;;;;;;;7.57;6.63;;;10.30;92.50;;;;;;5008909;28;20214;-70
2022/04/13 04:38:03;;;;;;;8.40;5.97;;;10.30;92.50;;;;;;5009074;28;20233;-71
2022/04/13 04:40:29;;;;;;;8.63;6.13;;;10.30;92.60;;;;;;5002683;28;20210;-71
2022/04/13 04:42:58;;;;;;;8.53;6.77;;;10.10;92.50;;;;;;4988760;28;20230;-70
2022/04/13 04:45:25;;;;;;;7.50;6.27;;;10.00;92.90;;;;;;4996747;28;20676;-70
2022/04/13 04:47:53;;;;;;;7.70;5.70;;;10.00;93.10;;;;;;5008728;28;20213;-70
2022/04/13 04:50:22;;;;;;;6.67;5.97;;;10.00;93.30;;;;;;5008185;28;20245;-70
2022/04/13 04:52:50;;;;;;;6.87;6.17;;;10.00;93.20;;;;;;5008126;28;20263;-71
2022/04/13 04:55:18;;;;;;;7.63;6.20;;;10.10;93.20;;;;;;5008539;28;20235;-69
2022/04/13 04:57:45;;;;;;;8.97;6.47;;;10.10;93.00;;;;;;5008778;28;20210;-70
2022/04/13 05:00:15;;;;;;;8.80;6.27;;;10.20;93.00;;;;;;5002318;28;20669;-69
2022/04/13 05:02:42;;;;;;;13.33;6.27;;;10.30;93.10;;;;;;4989092;28;20264;-70
2022/04/13 05:05:09;;;;;;;9.93;7.03;;;10.30;93.10;;;;;;4989100;28;20210;-70
2022/04/13 05:07:37;;;;;;;6.40;5.77;;;10.00;93.00;;;;;;4993793;28;20220;-69
2022/04/13 05:10:04;;;;;;;6.77;6.07;;;10.00;93.20;;;;;;5008282;28;20259;-70
2022/04/13 05:12:31;;;;;;;6.93;5.90;;;10.10;93.20;;;;;;5008211;28;20213;-69
2022/04/13 05:14:58;;;;;;;7.50;6.30;;;10.10;93.20;;;;;;5007001;28;20206;-69
2022/04/13 05:17:24;;;;;;;7.70;6.53;;;10.00;93.30;;;;;;4997789;28;20520;-70
2022/04/13 05:19:51;;;;;;;8.33;6.60;;;10.10;93.30;;;;;;4988407;28;20205;-69
2022/04/13 05:22:18;;;;;;;8.40;6.40;;;10.30;93.10;;;;;;4987776;28;20873;-69
2022/04/13 05:24:46;;;;;;;9.37;6.40;;;10.30;93.10;;;;;;4999574;28;20206;-70
2022/04/13 05:27:12;;;;;;;9.20;6.20;;;10.30;92.90;;;;;;5007946;28;20214;-70
2022/04/13 05:29:39;;;;;;;8.37;6.97;;;10.40;93.20;;;;;;4996420;28;20203;-70
2022/04/13 05:32:06;;;;;;;6.67;5.73;;;10.40;93.40;;;;;;4992905;28;20730;-67
2022/04/13 05:34:33;;;;;;;7.07;6.03;;;10.40;93.40;;;;;;5008025;28;20301;-68
2022/04/13 05:37:00;;;;;;;7.87;5.80;;;10.30;93.40;;;;;;5007636;28;20208;-68
2022/04/13 05:39:27;;;;;;;8.60;6.00;;;10.50;93.70;;;;;;5007976;28;20224;-68
2022/04/13 05:41:56;;;;;;;6.60;5.73;;;10.60;93.40;;;;;;5002628;28;20226;-68
2022/04/13 05:44:23;;;;;;;6.97;6.33;;;10.70;93.50;;;;;;4996569;28;20205;-68
2022/04/13 05:46:49;;;;;;;6.80;6.13;;;10.40;93.30;;;;;;5007410;28;20225;-67
2022/04/13 05:49:16;;;;;;;8.40;6.07;;;10.50;93.10;;;;;;5007671;28;20309;-67
2022/04/13 05:51:42;;;;;;;9.37;6.30;;;10.50;93.20;;;;;;5006651;28;20703;-67
2022/04/13 05:54:09;;;;;;;7.33;6.27;;;10.60;93.30;;;;;;5006768;28;20206;-67
2022/04/13 05:56:36;;;;;;;7.83;6.60;;;10.70;93.50;;;;;;5007431;28;20209;-67
2022/04/13 05:59:04;;;;;;;9.00;6.27;;;10.80;93.10;;;;;;5004797;28;20205;-67
2022/04/13 06:01:30;;;;;;;9.00;6.70;;;10.90;93.30;;;;;;4999380;28;20205;-67
2022/04/13 06:03:57;;;;;;;8.37;7.30;;;10.90;93.30;;;;;;4993603;28;20664;-68
2022/04/13 06:06:28;;;;;;;9.80;6.37;;;10.90;93.00;;;;;;5007699;28;20213;-72
2022/04/13 06:08:54;;;;;;;7.50;6.53;;;11.00;92.80;;;;;;5007605;28;20735;-72
2022/04/13 06:11:21;;;;;;;8.63;6.80;;;11.00;92.80;;;;;;5007658;28;20202;-71
2022/04/13 06:13:48;;;;;;;7.67;6.10;;;11.00;93.00;;;;;;5007644;28;20280;-72
2022/04/13 06:16:15;;;;;;;8.50;6.47;;;10.90;93.00;;;;;;4996991;28;20210;-72
2022/04/13 06:18:42;;;;;;;8.00;6.20;;;10.80;93.30;;;;;;5004108;28;20723;-75
2022/04/13 06:21:09;;;;;;;8.37;6.83;;;10.90;93.10;;;;;;5007451;28;20240;-69
2022/04/13 06:23:36;;;;;;;7.00;5.93;;;11.00;93.10;;;;;;5007243;28;20230;-69
2022/04/13 06:26:06;;;;;;;8.57;6.67;;;11.00;93.00;;;;;;5007048;28;20202;-69
2022/04/13 06:28:32;;;;;;;7.50;6.60;;;11.20;93.10;;;;;;5007259;28;20660;-69
2022/04/13 06:30:59;;;;;;;9.57;6.30;;;11.20;92.90;;;;;;5007065;28;20275;-69
2022/04/13 06:33:27;;;;;;;7.73;6.30;;;11.20;93.00;;;;;;5009040;28;20679;-71
2022/04/13 06:35:53;;;;;;;7.57;6.40;;;11.30;93.10;;;;;;5010789;28;20206;-71
2022/04/13 06:38:20;;;;;;;7.07;6.23;;;11.30;93.10;;;;;;5010836;28;20214;-66
2022/04/13 06:40:47;;;;;;;8.27;7.03;;;11.30;93.10;;;;;;5010377;28;20248;-67
2022/04/13 06:43:13;;;;;;;7.57;6.70;;;11.30;93.20;;;;;;5010318;28;20233;-66
2022/04/13 06:45:40;;;;;;;7.80;6.70;;;11.40;93.10;;;;;;5009299;28;20263;-66
2022/04/13 06:48:08;;;;;;;7.40;6.50;;;11.30;93.40;;;;;;5010404;28;20336;-67
2022/04/13 06:50:36;;;;;;;7.17;6.13;;;11.40;93.20;;;;;;4998662;28;20234;-70
2022/04/13 06:53:03;;;;;;;8.13;6.20;;;11.40;93.20;;;;;;5007114;28;20613;-71
2022/04/13 06:55:29;;;;;;;7.93;6.10;;;11.50;93.30;;;;;;5010296;28;20610;-70
2022/04/13 06:57:56;;;;;;;8.17;6.53;;;11.60;93.40;;;;;;5003619;28;20198;-70
2022/04/13 07:00:23;;;;;;;10.93;6.43;;;11.60;93.10;;;;;;4997786;28;20676;-71
2022/04/13 07:02:49;;;;;;;7.00;6.40;;;11.70;93.30;;;;;;5010334;28;20229;-73
2022/04/13 07:05:16;;;;;;;7.13;6.43;;;11.80;92.90;;;;;;5010465;28;20205;-71
2022/04/13 07:07:44;;;;;;;9.87;6.17;;;11.80;93.00;;;;;;5010596;28;20259;-70
2022/04/13 07:10:10;;;;;;;7.93;6.33;;;11.80;93.30;;;;;;5009832;28;20213;-70
2022/04/13 07:12:39;;;;;;;7.87;6.37;;;11.80;92.80;;;;;;5010018;28;20737;-74
2022/04/13 07:15:07;;;;;;;9.47;6.77;;;11.90;92.80;;;;;;5009879;28;20206;-70
2022/04/13 07:17:34;;;;;;;10.00;7.27;;;11.90;92.50;;;;;;4995367;28;20206;-70
2022/04/13 07:20:00;;;;;;;7.87;7.07;;;12.00;92.40;;;;;;5009675;28;20198;-67
2022/04/13 07:22:27;;;;;;;7.83;6.70;;;12.00;92.20;;;;;;5010141;28;20229;-67
2022/04/13 07:24:55;;;;;;;8.57;7.27;;;12.00;92.60;;;;;;5009586;28;20956;-69
2022/04/13 07:27:21;;;;;;;9.60;7.17;;;12.00;92.20;;;;;;5009785;28;20546;-70
2022/04/13 07:29:48;;;;;;;8.70;5.37;;;12.10;92.10;;;;;;5008955;28;20236;-67
2022/04/13 07:32:15;;;;;;;8.57;6.80;;;12.20;92.40;;;;;;5008977;28;20202;-67
2022/04/13 07:34:41;;;;;;;9.07;6.67;;;12.20;92.40;;;;;;5004575;28;20730;-67
2022/04/13 07:37:08;;;;;;;9.30;6.77;;;12.30;92.40;;;;;;5007246;28;20209;-67
2022/04/13 07:39:35;;;;;;;8.20;6.90;;;12.30;92.50;;;;;;5007483;28;20735;-68
2022/04/13 07:42:03;;;;;;;7.17;6.37;;;12.40;92.30;;;;;;5005878;28;20220;-69
2022/04/13 07:44:30;;;;;;;12.07;7.17;;;12.50;92.30;;;;;;5007489;28;20220;-68
2022/04/13 07:46:57;;;;;;;8.13;6.50;;;12.50;92.10;;;;;;5007641;28;20559;-68
2022/04/13 07:49:24;;;;;;;7.60;6.10;;;12.60;92.00;;;;;;5006989;28;20244;-69
2022/04/13 07:51:50;;;;;;;8.23;6.90;;;12.60;92.00;;;;;;5007031;28;20322;-69
2022/04/13 07:54:17;;;;;;;9.13;6.63;;;12.70;92.30;;;;;;5006828;28;20209;-68
2022/04/13 07:56:43;;;;;;;9.57;6.47;;;12.80;92.00;;;;;;5007521;28;20201;-68
2022/04/13 07:59:11;;;;;;;8.63;7.10;;;12.80;92.10;;;;;;5007036;28;20206;-68
2022/04/13 08:01:38;;;;;;;7.30;6.50;;;12.90;92.10;;;;;;5007259;28;20283;-69
2022/04/13 08:04:05;;;;;;;7.63;6.57;;;13.00;92.20;;;;;;4991213;28;20697;-68
2022/04/13 08:06:32;;;;;;;6.80;6.17;;;13.00;92.20;;;;;;4988039;28;20210;-68
2022/04/13 08:08:59;;;;;;;8.10;6.67;;;13.10;92.30;;;;;;5005068;28;20241;-69
2022/04/13 08:11:26;;;;;;;8.33;7.03;;;13.20;92.20;;;;;;5006615;28;20618;-68
2022/04/13 08:13:53;;;;;;;7.43;6.57;;;13.20;91.90;;;;;;5004704;28;20210;-69
2022/04/13 08:16:21;;;;;;;7.23;6.30;;;13.30;91.80;;;;;;4996852;28;20206;-69
2022/04/13 08:18:47;;;;;;;7.70;6.50;;;13.30;91.90;;;;;;5003163;28;20255;-68
2022/04/13 08:21:14;;;;;;;9.27;7.23;;;13.40;92.00;;;;;;5001494;28;20202;-68
2022/04/13 08:23:41;;;;;;;7.73;6.43;;;13.40;91.50;;;;;;4993349;28;20297;-69
2022/04/13 08:26:07;;;;;;;7.70;6.90;;;13.40;91.80;;;;;;5001904;28;20197;-69
2022/04/13 08:28:34;;;;;;;7.67;6.23;;;13.40;92.30;;;;;;5006550;28;20217;-68
2022/04/13 08:31:02;;;;;;;7.70;6.50;;;13.40;92.50;;;;;;5006629;28;20217;-69
2022/04/13 08:33:34;;;;;;;7.63;6.33;;;13.40;92.10;;;;;;5007263;28;20213;-69
2022/04/13 08:36:00;;;;;;;8.20;6.70;;;13.50;92.40;;;;;;5006925;28;20217;-69
2022/04/13 08:38:27;;;;;;;7.63;6.70;;;13.50;92.40;;;;;;5006953;28;20213;-69
2022/04/13 08:40:58;;;;;;;8.17;6.70;;;13.60;91.80;;;;;;5006531;28;20209;-68
2022/04/13 08:43:31;;;;;;;7.53;6.50;;;13.70;91.70;;;;;;4993598;28;20241;-68
2022/04/13 08:46:00;;;;;;;9.67;7.67;;;13.80;91.70;;;;;;5003952;28;20202;-69
2022/04/13 08:48:27;;;;;;;10.93;7.13;;;13.90;91.50;;;;;;5003344;28;20226;-68
2022/04/13 08:50:59;;;;;;;7.83;7.03;;;14.00;91.50;;;;;;4998120;28;20236;-68
2022/04/13 08:53:29;;;;;;;9.87;6.93;;;14.10;91.60;;;;;;4999564;28;20210;-68
2022/04/13 08:55:58;;;;;;;7.60;6.70;;;14.20;91.70;;;;;;5006674;28;20204;-69
2022/04/13 08:58:35;;;;;;;9.63;7.80;;;14.20;91.30;;;;;;5006777;28;20300;-69
2022/04/13 09:01:11;;;;;;;8.27;7.03;;;14.30;91.40;;;;;;5006212;28;20204;-69
2022/04/13 09:03:42;;;;;;;7.57;6.37;;;14.40;91.40;;;;;;5006853;28;20225;-69
2022/04/13 09:06:11;;;;;;;8.70;6.47;;;14.50;92.10;;;;;;5006089;28;20462;-69
2022/04/13 09:08:46;;;;;;;10.83;6.83;;;14.60;91.90;;;;;;4987045;28;20213;-69
2022/04/13 09:11:14;;;;;;;8.40;6.43;;;14.80;92.40;;;;;;4986586;28;20197;-69
2022/04/13 09:13:43;;;;;;;8.80;6.80;;;14.80;92.00;;;;;;4995841;28;20237;-69
2022/04/13 09:16:10;;;;;;;8.63;7.40;;;14.80;91.50;;;;;;4987048;28;20245;-69
2022/04/13 09:18:37;;;;;;;10.37;7.10;;;14.90;91.30;;;;;;4992717;28;20209;-69
2022/04/13 09:21:07;;;;;;;12.17;6.90;;;15.00;91.40;;;;;;4993566;28;20233;-69
2022/04/13 09:23:35;;;;;;;8.67;7.57;;;15.00;91.60;;;;;;4992882;28;20666;-69
2022/04/13 09:26:06;;;;;;;8.93;7.10;;;15.10;91.70;;;;;;4999203;28;20437;-69
2022/04/13 09:28:33;;;;;;;9.03;6.67;;;15.30;91.40;;;;;;5006926;28;20276;-69
2022/04/13 09:31:00;;;;;;;14.13;7.13;;;15.40;91.30;;;;;;5005389;28;20299;-68
2022/04/13 09:33:27;;;;;;;8.23;7.40;;;15.40;91.70;;;;;;5005619;28;20969;-69
2022/04/13 09:35:54;;;;;;;10.50;7.17;;;15.40;91.50;;;;;;4999181;28;20256;-69
2022/04/13 09:38:21;;;;;;;7.63;6.43;;;15.50;91.80;;;;;;5005857;28;20301;-69
2022/04/13 09:40:51;;;;;;;8.37;6.63;;;15.60;91.50;;;;;;5004385;28;20631;-69
2022/04/13 09:43:19;;;;;;;9.57;7.50;;;15.60;91.20;;;;;;4987702;28;20214;-70
2022/04/13 09:45:49;;;;;;;8.03;7.03;;;15.60;90.50;;;;;;4986064;28;20202;-69
2022/04/13 09:48:17;;;;;;;9.37;6.50;;;15.70;90.50;;;;;;4991498;28;20233;-69
2022/04/13 09:50:49;;;;;;;10.13;7.30;;;15.80;90.80;;;;;;4997710;28;20651;-70
2022/04/13 09:53:17;;;;;;;10.67;7.10;;;16.00;91.20;;;;;;5005455;28;20730;-69
2022/04/13 09:55:45;;;;;;;11.07;6.87;;;16.10;90.80;;;;;;5004158;28;20210;-69
2022/04/13 09:58:16;;;;;;;11.23;7.20;;;16.20;90.40;;;;;;4993543;28;20323;-69
2022/04/13 10:00:45;;;;;;;8.10;7.27;;;16.20;90.00;;;;;;4986533;28;20209;-69
2022/04/13 10:03:14;;;;;;;9.03;7.27;;;16.20;89.60;;;;;;4990421;28;20256;-69
2022/04/13 10:05:46;;;;;;;8.63;7.00;;;16.30;89.50;;;;;;5004724;28;20267;-69
2022/04/13 10:08:14;;;;;;;9.90;6.93;;;16.40;90.00;;;;;;4997076;28;20244;-69
2022/04/13 10:10:43;;;;;;;11.53;6.83;;;16.40;90.30;;;;;;5010201;28;20237;-69
2022/04/13 10:13:11;;;;;;;10.43;6.87;;;16.60;90.10;;;;;;5008001;28;20372;-68
2022/04/13 10:15:39;;;;;;;9.77;6.90;;;16.70;90.30;;;;;;4996802;28;20209;-68
2022/04/13 10:18:06;;;;;;;9.10;7.10;;;16.70;89.90;;;;;;5000813;28;20210;-70
2022/04/13 10:20:43;;;;;;;11.47;7.87;;;16.80;90.10;;;;;;4997676;28;20201;-69
2022/04/13 10:23:10;;;;;;;9.03;7.10;;;16.80;90.00;;;;;;4997748;28;20276;-69
2022/04/13 10:25:37;;;;;;;8.33;7.00;;;16.90;90.10;;;;;;4990759;28;20241;-69
2022/04/13 10:28:04;;;;;;;8.63;6.60;;;17.00;90.10;;;;;;5003674;28;20692;-69
2022/04/13 10:30:32;;;;;;;8.07;6.40;;;17.00;90.20;;;;;;4999513;28;20214;-69
2022/04/13 10:33:03;;;;;;;7.70;6.87;;;17.00;90.50;;;;;;5004497;28;20202;-69
2022/04/13 10:35:31;;;;;;;8.23;7.13;;;17.20;90.00;;;;;;5003360;28;20257;-70
2022/04/13 10:37:59;;;;;;;8.53;7.17;;;17.50;90.70;;;;;;5005364;28;20620;-70
2022/04/13 10:40:26;;;;;;;12.83;7.23;;;17.60;90.00;;;;;;5009205;28;20202;-69
2022/04/13 10:42:56;;;;;;;8.53;6.83;;;17.70;88.20;;;;;;5008682;28;20209;-70
2022/04/13 10:45:23;;;;;;;9.13;6.63;;;17.70;87.40;;;;;;5008602;28;20229;-69
2022/04/13 10:47:56;;;;;;;11.33;6.77;;;17.90;88.30;;;;;;4994634;28;20224;-68
2022/04/13 10:50:31;;;;;;;7.83;6.37;;;17.90;88.40;;;;;;4991973;28;20237;-69
2022/04/13 10:53:00;;;;;;;8.73;6.13;;;18.00;87.40;;;;;;5006123;28;20209;-68
2022/04/13 10:55:30;;;;;;;8.03;6.70;;;18.00;87.90;;;;;;5006343;28;20225;-69
2022/04/13 10:58:02;;;;;;;6.73;6.13;;;18.10;88.10;;;;;;4999618;28;20238;-69
2022/04/13 11:00:32;;;;;;;7.77;6.10;;;18.20;87.20;;;;;;5003229;28;20231;-69
2022/04/13 11:03:02;;;;;;;8.93;6.40;;;18.20;88.60;;;;;;5008403;28;20659;-68
2022/04/13 11:05:30;;;;;;;8.57;6.70;;;18.30;87.30;;;;;;5008227;28;20598;-69
2022/04/13 11:08:04;;;;;;;6.57;5.80;;;18.30;86.50;;;;;;4989756;28;20206;-70
2022/04/13 11:10:32;;;;;;;7.60;6.03;;;18.40;85.40;;;;;;4989110;28;20195;-69
2022/04/13 11:13:00;;;;;;;7.90;6.63;;;18.40;85.10;;;;;;4998763;28;20676;-69
2022/04/13 11:15:42;;;;;;;7.23;6.53;;;18.50;86.00;;;;;;5007269;28;20734;-69
2022/04/13 11:18:11;;;;;;;7.63;5.47;;;18.50;85.70;;;;;;4999341;28;20206;-69
2022/04/13 11:20:54;;;;;;;8.90;7.30;;;18.60;87.30;;;;;;5001444;28;20673;-69
2022/04/13 11:23:21;;;;;;;8.30;6.13;;;18.70;85.80;;;;;;4996408;28;20277;-69
2022/04/13 11:25:50;;;;;;;7.73;6.30;;;18.80;85.10;;;;;;5005700;28;20198;-69
2022/04/13 11:28:25;;;;;;;10.10;6.43;;;18.90;84.40;;;;;;4992487;28;20237;-69
2022/04/13 11:31:08;;;;;;;8.40;6.67;;;19.00;84.90;;;;;;5008201;28;20205;-69
2022/04/13 11:33:55;;;;;;;6.67;5.97;;;19.10;84.00;;;;;;5007845;28;20280;-69
2022/04/13 11:36:25;;;;;;;7.70;6.10;;;19.20;84.00;;;;;;5002816;28;20300;-69
2022/04/13 11:38:54;;;;;;;6.80;5.97;;;19.10;83.10;;;;;;4988324;28;20232;-69
2022/04/13 11:41:23;;;;;;;6.27;5.63;;;19.20;83.90;;;;;;4993589;28;20588;-69
2022/04/13 11:43:49;;;;;;;6.93;5.97;;;19.20;83.60;;;;;;5008033;28;20237;-69
2022/04/13 11:46:37;;;;;;;8.10;6.40;;;19.20;83.70;;;;;;4997201;28;20214;-69
2022/04/13 11:49:04;;;;;;;6.63;5.87;;;19.20;82.60;;;;;;5000290;28;20229;-70
2022/04/13 11:51:32;;;;;;;7.10;6.00;;;19.20;82.60;;;;;;5007409;28;20233;-69
2022/04/13 11:54:07;;;;;;;7.23;6.20;;;19.30;83.20;;;;;;5006932;28;20232;-69
2022/04/13 11:56:35;;;;;;;7.23;6.13;;;19.30;83.60;;;;;;4993082;28;20280;-69
2022/04/13 11:59:01;;;;;;;6.77;6.17;;;19.40;83.70;;;;;;5002018;28;20673;-69
2022/04/13 12:01:28;;;;;;;7.40;6.70;;;19.40;83.40;;;;;;5000565;28;20301;-69
2022/04/13 12:03:56;;;;;;;9.07;6.33;;;19.40;82.60;;;;;;5008151;28;20273;-69
2022/04/13 12:06:25;;;;;;;7.57;6.00;;;19.40;83.00;;;;;;4990558;28;20202;-69
2022/04/13 12:08:55;;;;;;;9.47;6.43;;;19.50;82.80;;;;;;4987947;28;20313;-69
2022/04/13 12:11:23;;;;;;;6.20;5.50;;;19.50;82.90;;;;;;5005206;28;20213;-72
2022/04/13 12:13:52;;;;;;;6.87;6.07;;;19.70;83.60;;;;;;5007165;28;20264;-72
2022/04/13 12:16:21;;;;;;;6.33;5.67;;;19.80;82.30;;;;;;4995798;28;20206;-72
2022/04/13 12:18:48;;;;;;;7.93;5.93;;;20.00;82.60;;;;;;5003561;28;20216;-72
2022/04/13 12:21:17;;;;;;;6.03;5.30;;;20.20;82.60;;;;;;5007012;28;20206;-72
2022/04/13 12:23:45;;;;;;;6.70;5.70;;;20.30;83.00;;;;;;5002556;28;20302;-72
2022/04/13 12:26:12;;;;;;;6.97;6.27;;;20.40;82.70;;;;;;4998192;28;20528;-72
2022/04/13 12:28:39;;;;;;;8.37;6.37;;;20.50;81.20;;;;;;5005422;28;20729;-72
2022/04/13 12:31:08;;;;;;;6.50;5.70;;;20.60;81.90;;;;;;4996093;28;20214;-71
2022/04/13 12:33:35;;;;;;;7.93;6.27;;;20.70;81.10;;;;;;4989017;28;20668;-71
2022/04/13 12:36:05;;;;;;;8.53;6.00;;;20.70;81.40;;;;;;4989404;28;20708;-71
2022/04/13 12:38:33;;;;;;;6.77;5.90;;;20.70;81.40;;;;;;5001548;28;20213;-71
2022/04/13 12:41:08;;;;;;;7.07;6.00;;;20.80;81.90;;;;;;5008789;28;20205;-71
2022/04/13 12:43:37;;;;;;;7.32;6.07;;;20.90;82.00;;;;;;5008252;28;20209;-71
2022/04/13 12:46:12;;;;;;;7.07;6.10;;;20.90;81.80;;;;;;5008217;28;20809;-72
2022/04/13 12:48:39;;;;;;;6.63;5.50;;;21.00;82.50;;;;;;4998025;28;20237;-71